San Juan Island, Washington
Current Conditions -  °F | °C
As of 5:02 PM on Thursday 18 Dec 2014 (Local Time) from KFHR Reporting Station
Broken Clouds Broken Clouds  
Wind Chill: 42°   Ceiling: 8000
Heat Index: 49°   Visibility: 10mi
Dew Point: 43°   Wind: 20mph
Humidity: 80%   Direction: 130°SE
Pressure: 29.69"   Gusts: 33mph
Location:  48.5377°N, 123.083°W
Report Text: KFHR 190102Z AUTO 13017G29KT 10SM SCT020 BKN080 BKN100 09/06 A2969 RMK AO2 PK WND 12029/0058 T00940061
Loading
Personal Weather Stations






























Interactive Weather Map New forecast layout! Learn more

10-Day Weather Forecast

Advertisements
Track Severe Weather on mobile